sensor_id;sensor_type;location;lat;lon;timestamp;P1;durP1;ratioP1;P2;durP2;ratioP2
63398;SDS011;49533;-34.520;150.798;2023-05-07T00:00:04;0.30;;;0.30;;
63398;SDS011;49533;-34.520;150.798;2023-05-07T00:02:33;0.40;;;0.20;;
63398;SDS011;49533;-34.520;150.798;2023-05-07T00:05:01;0.40;;;0.40;;
63398;SDS011;49533;-34.520;150.798;2023-05-07T00:07:28;0.40;;;0.40;;
63398;SDS011;49533;-34.520;150.798;2023-05-07T00:09:56;0.75;;;0.30;;
63398;SDS011;49533;-34.520;150.798;2023-05-07T00:12:23;0.20;;;0.20;;
63398;SDS011;49533;-34.520;150.798;2023-05-07T00:14:51;0.90;;;0.20;;
63398;SDS011;49533;-34.520;150.798;2023-05-07T00:17:18;0.25;;;0.25;;
63398;SDS011;49533;-34.520;150.798;2023-05-07T00:19:45;0.57;;;0.55;;
63398;SDS011;49533;-34.520;150.798;2023-05-07T00:22:12;0.68;;;0.50;;
63398;SDS011;49533;-34.520;150.798;2023-05-07T00:24:39;0.57;;;0.40;;
63398;SDS011;49533;-34.520;150.798;2023-05-07T00:27:07;0.40;;;0.40;;
63398;SDS011;49533;-34.520;150.798;2023-05-07T00:29:35;0.70;;;0.40;;
63398;SDS011;49533;-34.520;150.798;2023-05-07T00:32:02;0.40;;;0.40;;
63398;SDS011;49533;-34.520;150.798;2023-05-07T00:34:30;0.20;;;0.20;;
63398;SDS011;49533;-34.520;150.798;2023-05-07T00:36:57;0.45;;;0.45;;
63398;SDS011;49533;-34.520;150.798;2023-05-07T00:39:24;0.40;;;0.40;;
63398;SDS011;49533;-34.520;150.798;2023-05-07T00:41:51;0.22;;;0.22;;
63398;SDS011;49533;-34.520;150.798;2023-05-07T00:44:18;0.75;;;0.40;;
63398;SDS011;49533;-34.520;150.798;2023-05-07T00:46:45;0.30;;;0.30;;
63398;SDS011;49533;-34.520;150.798;2023-05-07T00:49:15;0.35;;;0.35;;
63398;SDS011;49533;-34.520;150.798;2023-05-07T00:51:42;0.45;;;0.20;;
63398;SDS011;49533;-34.520;150.798;2023-05-07T00:54:11;1.58;;;0.30;;
63398;SDS011;49533;-34.520;150.798;2023-05-07T00:56:39;0.10;;;0.10;;
63398;SDS011;49533;-34.520;150.798;2023-05-07T00:59:07;0.68;;;0.35;;
63398;SDS011;49533;-34.520;150.798;2023-05-07T01:01:35;0.38;;;0.35;;
63398;SDS011;49533;-34.520;150.798;2023-05-07T01:04:02;0.50;;;0.50;;
63398;SDS011;49533;-34.520;150.798;2023-05-07T01:06:29;0.82;;;0.32;;
63398;SDS011;49533;-34.520;150.798;2023-05-07T01:08:58;0.47;;;0.30;;
63398;SDS011;49533;-34.520;150.798;2023-05-07T01:11:26;0.30;;;0.30;;
63398;SDS011;49533;-34.520;150.798;2023-05-07T01:13:54;0.65;;;0.30;;
63398;SDS011;49533;-34.520;150.798;2023-05-07T01:16:22;0.80;;;0.30;;
63398;SDS011;49533;-34.520;150.798;2023-05-07T01:18:49;1.30;;;0.50;;
63398;SDS011;49533;-34.520;150.798;2023-05-07T01:21:16;0.60;;;0.55;;
63398;SDS011;49533;-34.520;150.798;2023-05-07T01:23:44;0.55;;;0.38;;
63398;SDS011;49533;-34.520;150.798;2023-05-07T01:26:13;0.70;;;0.70;;
63398;SDS011;49533;-34.520;150.798;2023-05-07T01:28:40;1.05;;;0.80;;
63398;SDS011;49533;-34.520;150.798;2023-05-07T01:31:08;0.50;;;0.50;;
63398;SDS011;49533;-34.520;150.798;2023-05-07T01:33:38;0.40;;;0.40;;
63398;SDS011;49533;-34.520;150.798;2023-05-07T01:36:08;0.90;;;0.50;;
63398;SDS011;49533;-34.520;150.798;2023-05-07T01:38:36;1.25;;;0.50;;
63398;SDS011;49533;-34.520;150.798;2023-05-07T01:41:06;0.40;;;0.40;;
63398;SDS011;49533;-34.520;150.798;2023-05-07T01:43:33;0.70;;;0.40;;
63398;SDS011;49533;-34.520;150.798;2023-05-07T01:46:01;0.22;;;0.22;;
63398;SDS011;49533;-34.520;150.798;2023-05-07T01:48:29;0.57;;;0.45;;
63398;SDS011;49533;-34.520;150.798;2023-05-07T01:50:56;0.47;;;0.47;;
63398;SDS011;49533;-34.520;150.798;2023-05-07T01:53:26;0.80;;;0.80;;
63398;SDS011;49533;-34.520;150.798;2023-05-07T01:55:54;0.60;;;0.38;;
63398;SDS011;49533;-34.520;150.798;2023-05-07T01:58:21;1.25;;;0.52;;
63398;SDS011;49533;-34.520;150.798;2023-05-07T02:00:48;0.85;;;0.50;;
63398;SDS011;49533;-34.520;150.798;2023-05-07T02:03:16;0.82;;;0.60;;
63398;SDS011;49533;-34.520;150.798;2023-05-07T02:05:43;1.52;;;0.70;;
63398;SDS011;49533;-34.520;150.798;2023-05-07T02:08:10;0.40;;;0.40;;
63398;SDS011;49533;-34.520;150.798;2023-05-07T02:10:38;0.28;;;0.28;;
63398;SDS011;49533;-34.520;150.798;2023-05-07T02:13:05;0.47;;;0.47;;
63398;SDS011;49533;-34.520;150.798;2023-05-07T02:15:32;0.77;;;0.75;;
63398;SDS011;49533;-34.520;150.798;2023-05-07T02:18:01;1.23;;;0.50;;
63398;SDS011;49533;-34.520;150.798;2023-05-07T02:20:30;0.45;;;0.25;;
63398;SDS011;49533;-34.520;150.798;2023-05-07T02:22:57;0.30;;;0.30;;
63398;SDS011;49533;-34.520;150.798;2023-05-07T02:25:24;0.40;;;0.40;;
63398;SDS011;49533;-34.520;150.798;2023-05-07T02:27:51;2.42;;;0.68;;
63398;SDS011;49533;-34.520;150.798;2023-05-07T02:30:18;0.52;;;0.45;;
63398;SDS011;49533;-34.520;150.798;2023-05-07T02:32:46;0.45;;;0.45;;
63398;SDS011;49533;-34.520;150.798;2023-05-07T02:35:14;0.75;;;0.45;;
63398;SDS011;49533;-34.520;150.798;2023-05-07T02:37:42;0.52;;;0.30;;
63398;SDS011;49533;-34.520;150.798;2023-05-07T02:40:09;0.35;;;0.32;;
63398;SDS011;49533;-34.520;150.798;2023-05-07T02:42:37;0.68;;;0.57;;
63398;SDS011;49533;-34.520;150.798;2023-05-07T02:45:04;0.65;;;0.60;;
63398;SDS011;49533;-34.520;150.798;2023-05-07T02:47:32;0.65;;;0.40;;
63398;SDS011;49533;-34.520;150.798;2023-05-07T02:49:59;0.40;;;0.30;;
63398;SDS011;49533;-34.520;150.798;2023-05-07T02:52:27;0.30;;;0.30;;
63398;SDS011;49533;-34.520;150.798;2023-05-07T02:54:54;0.65;;;0.40;;
63398;SDS011;49533;-34.520;150.798;2023-05-07T02:57:21;0.65;;;0.40;;
63398;SDS011;49533;-34.520;150.798;2023-05-07T02:59:48;0.95;;;0.75;;
63398;SDS011;49533;-34.520;150.798;2023-05-07T03:02:16;0.65;;;0.52;;
63398;SDS011;49533;-34.520;150.798;2023-05-07T03:04:43;0.52;;;0.40;;
63398;SDS011;49533;-34.520;150.798;2023-05-07T03:07:11;0.40;;;0.40;;
63398;SDS011;49533;-34.520;150.798;2023-05-07T03:09:40;0.32;;;0.32;;
63398;SDS011;49533;-34.520;150.798;2023-05-07T03:12:07;1.02;;;0.38;;
63398;SDS011;49533;-34.520;150.798;2023-05-07T03:14:34;0.63;;;0.50;;
63398;SDS011;49533;-34.520;150.798;2023-05-07T03:17:01;0.95;;;0.60;;
63398;SDS011;49533;-34.520;150.798;2023-05-07T03:19:28;0.52;;;0.32;;
63398;SDS011;49533;-34.520;150.798;2023-05-07T03:21:56;0.50;;;0.50;;
63398;SDS011;49533;-34.520;150.798;2023-05-07T03:24:29;0.45;;;0.20;;
63398;SDS011;49533;-34.520;150.798;2023-05-07T03:26:56;0.93;;;0.50;;
63398;SDS011;49533;-34.520;150.798;2023-05-07T03:29:23;1.20;;;0.50;;
63398;SDS011;49533;-34.520;150.798;2023-05-07T03:31:50;1.80;;;0.35;;
63398;SDS011;49533;-34.520;150.798;2023-05-07T03:34:18;1.10;;;0.55;;
63398;SDS011;49533;-34.520;150.798;2023-05-07T03:36:48;0.50;;;0.30;;
63398;SDS011;49533;-34.520;150.798;2023-05-07T03:39:16;0.40;;;0.40;;
63398;SDS011;49533;-34.520;150.798;2023-05-07T03:41:44;0.95;;;0.40;;
63398;SDS011;49533;-34.520;150.798;2023-05-07T03:44:11;0.98;;;0.77;;
63398;SDS011;49533;-34.520;150.798;2023-05-07T03:46:38;0.40;;;0.40;;
63398;SDS011;49533;-34.520;150.798;2023-05-07T03:49:05;0.88;;;0.38;;
63398;SDS011;49533;-34.520;150.798;2023-05-07T03:51:33;2.00;;;0.38;;
63398;SDS011;49533;-34.520;150.798;2023-05-07T03:54:01;0.70;;;0.50;;
63398;SDS011;49533;-34.520;150.798;2023-05-07T03:56:28;0.25;;;0.13;;
63398;SDS011;49533;-34.520;150.798;2023-05-07T03:58:56;1.20;;;0.50;;
63398;SDS011;49533;-34.520;150.798;2023-05-07T04:01:23;1.05;;;0.52;;
63398;SDS011;49533;-34.520;150.798;2023-05-07T04:03:51;0.93;;;0.30;;
63398;SDS011;49533;-34.520;150.798;2023-05-07T04:06:18;0.38;;;0.35;;
63398;SDS011;49533;-34.520;150.798;2023-05-07T04:08:46;1.08;;;0.40;;
63398;SDS011;49533;-34.520;150.798;2023-05-07T04:11:13;2.22;;;0.55;;
63398;SDS011;49533;-34.520;150.798;2023-05-07T04:13:41;1.67;;;0.50;;
63398;SDS011;49533;-34.520;150.798;2023-05-07T04:16:08;1.30;;;0.60;;
63398;SDS011;49533;-34.520;150.798;2023-05-07T04:18:35;1.13;;;0.50;;
63398;SDS011;49533;-34.520;150.798;2023-05-07T04:21:02;0.90;;;0.52;;
63398;SDS011;49533;-34.520;150.798;2023-05-07T04:23:29;0.60;;;0.40;;
63398;SDS011;49533;-34.520;150.798;2023-05-07T04:25:57;0.60;;;0.40;;
63398;SDS011;49533;-34.520;150.798;2023-05-07T04:28:24;1.13;;;0.50;;
63398;SDS011;49533;-34.520;150.798;2023-05-07T04:30:51;1.17;;;0.50;;
63398;SDS011;49533;-34.520;150.798;2023-05-07T04:33:18;0.52;;;0.30;;
63398;SDS011;49533;-34.520;150.798;2023-05-07T04:35:45;1.08;;;0.50;;
63398;SDS011;49533;-34.520;150.798;2023-05-07T04:38:13;1.48;;;0.75;;
63398;SDS011;49533;-34.520;150.798;2023-05-07T04:40:40;1.60;;;0.40;;
63398;SDS011;49533;-34.520;150.798;2023-05-07T04:43:08;0.63;;;0.38;;
63398;SDS011;49533;-34.520;150.798;2023-05-07T04:45:36;0.98;;;0.30;;
63398;SDS011;49533;-34.520;150.798;2023-05-07T04:48:06;0.50;;;0.50;;
63398;SDS011;49533;-34.520;150.798;2023-05-07T04:50:33;1.00;;;0.40;;
63398;SDS011;49533;-34.520;150.798;2023-05-07T04:53:00;1.05;;;0.60;;
63398;SDS011;49533;-34.520;150.798;2023-05-07T04:55:28;1.20;;;0.30;;
63398;SDS011;49533;-34.520;150.798;2023-05-07T04:57:55;0.63;;;0.45;;
63398;SDS011;49533;-34.520;150.798;2023-05-07T05:00:22;1.83;;;0.50;;
63398;SDS011;49533;-34.520;150.798;2023-05-07T05:02:50;0.75;;;0.60;;
63398;SDS011;49533;-34.520;150.798;2023-05-07T05:05:18;1.20;;;0.60;;
63398;SDS011;49533;-34.520;150.798;2023-05-07T05:07:45;1.70;;;0.32;;
63398;SDS011;49533;-34.520;150.798;2023-05-07T05:10:12;0.30;;;0.30;;
63398;SDS011;49533;-34.520;150.798;2023-05-07T05:12:39;0.38;;;0.38;;
63398;SDS011;49533;-34.520;150.798;2023-05-07T05:15:07;0.47;;;0.40;;
63398;SDS011;49533;-34.520;150.798;2023-05-07T05:17:35;0.30;;;0.30;;
63398;SDS011;49533;-34.520;150.798;2023-05-07T05:20:03;0.35;;;0.35;;
63398;SDS011;49533;-34.520;150.798;2023-05-07T05:22:31;0.30;;;0.30;;
63398;SDS011;49533;-34.520;150.798;2023-05-07T05:24:59;0.30;;;0.30;;
63398;SDS011;49533;-34.520;150.798;2023-05-07T05:27:26;0.98;;;0.45;;
63398;SDS011;49533;-34.520;150.798;2023-05-07T05:29:54;0.20;;;0.20;;
63398;SDS011;49533;-34.520;150.798;2023-05-07T05:32:21;0.55;;;0.55;;
63398;SDS011;49533;-34.520;150.798;2023-05-07T05:34:48;0.30;;;0.30;;
63398;SDS011;49533;-34.520;150.798;2023-05-07T05:37:16;0.60;;;0.60;;
63398;SDS011;49533;-34.520;150.798;2023-05-07T05:39:43;0.50;;;0.50;;
63398;SDS011;49533;-34.520;150.798;2023-05-07T05:42:10;0.47;;;0.47;;
63398;SDS011;49533;-34.520;150.798;2023-05-07T05:44:38;0.70;;;0.45;;
63398;SDS011;49533;-34.520;150.798;2023-05-07T05:47:05;0.70;;;0.70;;
63398;SDS011;49533;-34.520;150.798;2023-05-07T05:49:33;0.50;;;0.50;;
63398;SDS011;49533;-34.520;150.798;2023-05-07T05:52:00;0.55;;;0.55;;
63398;SDS011;49533;-34.520;150.798;2023-05-07T05:54:27;0.70;;;0.70;;
63398;SDS011;49533;-34.520;150.798;2023-05-07T05:56:55;1.60;;;0.90;;
63398;SDS011;49533;-34.520;150.798;2023-05-07T05:59:22;0.68;;;0.68;;
63398;SDS011;49533;-34.520;150.798;2023-05-07T06:01:50;0.60;;;0.60;;
63398;SDS011;49533;-34.520;150.798;2023-05-07T06:04:17;0.90;;;0.90;;
63398;SDS011;49533;-34.520;150.798;2023-05-07T06:06:44;0.88;;;0.88;;
63398;SDS011;49533;-34.520;150.798;2023-05-07T06:09:11;1.75;;;0.90;;
63398;SDS011;49533;-34.520;150.798;2023-05-07T06:11:38;0.82;;;0.82;;
63398;SDS011;49533;-34.520;150.798;2023-05-07T06:14:06;1.00;;;0.98;;
63398;SDS011;49533;-34.520;150.798;2023-05-07T06:16:33;1.10;;;1.10;;
63398;SDS011;49533;-34.520;150.798;2023-05-07T06:19:02;1.05;;;0.80;;
63398;SDS011;49533;-34.520;150.798;2023-05-07T06:21:30;0.80;;;0.80;;
63398;SDS011;49533;-34.520;150.798;2023-05-07T06:23:57;0.68;;;0.68;;
63398;SDS011;49533;-34.520;150.798;2023-05-07T06:26:24;0.75;;;0.75;;
63398;SDS011;49533;-34.520;150.798;2023-05-07T06:28:52;0.88;;;0.85;;
63398;SDS011;49533;-34.520;150.798;2023-05-07T06:31:19;0.80;;;0.80;;
63398;SDS011;49533;-34.520;150.798;2023-05-07T06:33:46;0.70;;;0.70;;
63398;SDS011;49533;-34.520;150.798;2023-05-07T06:36:14;0.60;;;0.60;;
63398;SDS011;49533;-34.520;150.798;2023-05-07T06:38:42;0.85;;;0.68;;
63398;SDS011;49533;-34.520;150.798;2023-05-07T06:41:09;0.80;;;0.80;;
63398;SDS011;49533;-34.520;150.798;2023-05-07T06:43:36;1.13;;;1.10;;
63398;SDS011;49533;-34.520;150.798;2023-05-07T06:46:03;0.88;;;0.88;;
63398;SDS011;49533;-34.520;150.798;2023-05-07T06:48:30;0.70;;;0.70;;
63398;SDS011;49533;-34.520;150.798;2023-05-07T06:50:58;1.55;;;0.80;;
63398;SDS011;49533;-34.520;150.798;2023-05-07T06:53:26;0.70;;;0.70;;
63398;SDS011;49533;-34.520;150.798;2023-05-07T06:55:54;0.68;;;0.65;;
63398;SDS011;49533;-34.520;150.798;2023-05-07T06:58:22;0.50;;;0.50;;
63398;SDS011;49533;-34.520;150.798;2023-05-07T07:00:49;0.50;;;0.50;;
63398;SDS011;49533;-34.520;150.798;2023-05-07T07:03:16;0.38;;;0.38;;
63398;SDS011;49533;-34.520;150.798;2023-05-07T07:05:43;0.55;;;0.55;;
63398;SDS011;49533;-34.520;150.798;2023-05-07T07:08:10;0.50;;;0.50;;
63398;SDS011;49533;-34.520;150.798;2023-05-07T07:10:37;0.65;;;0.50;;
63398;SDS011;49533;-34.520;150.798;2023-05-07T07:13:05;0.40;;;0.40;;
63398;SDS011;49533;-34.520;150.798;2023-05-07T07:15:32;0.50;;;0.30;;
63398;SDS011;49533;-34.520;150.798;2023-05-07T07:17:59;0.28;;;0.28;;
63398;SDS011;49533;-34.520;150.798;2023-05-07T07:20:26;0.45;;;0.45;;
63398;SDS011;49533;-34.520;150.798;2023-05-07T07:22:54;0.28;;;0.28;;
63398;SDS011;49533;-34.520;150.798;2023-05-07T07:25:22;0.30;;;0.30;;
63398;SDS011;49533;-34.520;150.798;2023-05-07T07:27:49;0.30;;;0.30;;
63398;SDS011;49533;-34.520;150.798;2023-05-07T07:30:16;0.32;;;0.32;;
63398;SDS011;49533;-34.520;150.798;2023-05-07T07:32:43;0.20;;;0.20;;
63398;SDS011;49533;-34.520;150.798;2023-05-07T07:35:10;0.55;;;0.40;;
63398;SDS011;49533;-34.520;150.798;2023-05-07T07:37:37;0.20;;;0.20;;
63398;SDS011;49533;-34.520;150.798;2023-05-07T07:40:05;0.20;;;0.20;;
63398;SDS011;49533;-34.520;150.798;2023-05-07T07:42:32;0.32;;;0.32;;
63398;SDS011;49533;-34.520;150.798;2023-05-07T07:45:00;0.30;;;0.30;;
63398;SDS011;49533;-34.520;150.798;2023-05-07T07:47:27;0.30;;;0.30;;
63398;SDS011;49533;-34.520;150.798;2023-05-07T07:49:54;0.20;;;0.20;;
63398;SDS011;49533;-34.520;150.798;2023-05-07T07:52:21;0.50;;;0.30;;
63398;SDS011;49533;-34.520;150.798;2023-05-07T07:54:49;0.20;;;0.20;;
63398;SDS011;49533;-34.520;150.798;2023-05-07T07:57:16;0.20;;;0.20;;
63398;SDS011;49533;-34.520;150.798;2023-05-07T07:59:44;0.20;;;0.20;;
63398;SDS011;49533;-34.520;150.798;2023-05-07T08:02:11;0.20;;;0.20;;
63398;SDS011;49533;-34.520;150.798;2023-05-07T08:04:38;0.20;;;0.20;;
63398;SDS011;49533;-34.520;150.798;2023-05-07T08:07:05;0.30;;;0.20;;
63398;SDS011;49533;-34.520;150.798;2023-05-07T08:09:32;0.30;;;0.30;;
63398;SDS011;49533;-34.520;150.798;2023-05-07T08:11:59;0.20;;;0.20;;
63398;SDS011;49533;-34.520;150.798;2023-05-07T08:14:26;0.30;;;0.30;;
63398;SDS011;49533;-34.520;150.798;2023-05-07T08:16:54;0.75;;;0.20;;
63398;SDS011;49533;-34.520;150.798;2023-05-07T08:19:21;0.20;;;0.20;;
63398;SDS011;49533;-34.520;150.798;2023-05-07T08:21:48;0.20;;;0.20;;
63398;SDS011;49533;-34.520;150.798;2023-05-07T08:24:16;0.28;;;0.28;;
63398;SDS011;49533;-34.520;150.798;2023-05-07T08:26:44;0.43;;;0.30;;
63398;SDS011;49533;-34.520;150.798;2023-05-07T08:29:12;0.32;;;0.10;;
63398;SDS011;49533;-34.520;150.798;2023-05-07T08:31:39;0.30;;;0.30;;
63398;SDS011;49533;-34.520;150.798;2023-05-07T08:34:06;0.65;;;0.22;;
63398;SDS011;49533;-34.520;150.798;2023-05-07T08:36:34;0.20;;;0.20;;
63398;SDS011;49533;-34.520;150.798;2023-05-07T08:39:01;0.40;;;0.30;;
63398;SDS011;49533;-34.520;150.798;2023-05-07T08:41:28;0.38;;;0.38;;
63398;SDS011;49533;-34.520;150.798;2023-05-07T08:43:57;0.30;;;0.30;;
63398;SDS011;49533;-34.520;150.798;2023-05-07T08:46:25;0.70;;;0.52;;
63398;SDS011;49533;-34.520;150.798;2023-05-07T08:48:57;0.28;;;0.28;;
63398;SDS011;49533;-34.520;150.798;2023-05-07T08:51:24;0.47;;;0.38;;
63398;SDS011;49533;-34.520;150.798;2023-05-07T08:53:52;0.63;;;0.40;;
63398;SDS011;49533;-34.520;150.798;2023-05-07T08:56:19;0.50;;;0.30;;
63398;SDS011;49533;-34.520;150.798;2023-05-07T08:58:47;1.45;;;0.40;;
63398;SDS011;49533;-34.520;150.798;2023-05-07T09:01:16;0.17;;;0.10;;
63398;SDS011;49533;-34.520;150.798;2023-05-07T09:03:44;0.47;;;0.28;;
63398;SDS011;49533;-34.520;150.798;2023-05-07T09:06:12;0.10;;;0.10;;
63398;SDS011;49533;-34.520;150.798;2023-05-07T09:08:40;1.05;;;0.22;;
63398;SDS011;49533;-34.520;150.798;2023-05-07T09:11:07;0.20;;;0.20;;
63398;SDS011;49533;-34.520;150.798;2023-05-07T09:13:35;0.30;;;0.15;;
63398;SDS011;49533;-34.520;150.798;2023-05-07T09:16:11;0.82;;;0.45;;
63398;SDS011;49533;-34.520;150.798;2023-05-07T09:18:42;0.30;;;0.30;;
63398;SDS011;49533;-34.520;150.798;2023-05-07T09:21:11;0.32;;;0.30;;
63398;SDS011;49533;-34.520;150.798;2023-05-07T09:23:42;0.45;;;0.30;;
63398;SDS011;49533;-34.520;150.798;2023-05-07T09:26:10;0.20;;;0.20;;
63398;SDS011;49533;-34.520;150.798;2023-05-07T09:28:38;0.20;;;0.20;;
63398;SDS011;49533;-34.520;150.798;2023-05-07T09:31:08;0.45;;;0.25;;
63398;SDS011;49533;-34.520;150.798;2023-05-07T09:33:37;0.15;;;0.15;;
63398;SDS011;49533;-34.520;150.798;2023-05-07T09:36:05;0.63;;;0.25;;
63398;SDS011;49533;-34.520;150.798;2023-05-07T09:38:34;0.40;;;0.30;;
63398;SDS011;49533;-34.520;150.798;2023-05-07T09:41:03;1.85;;;0.60;;
63398;SDS011;49533;-34.520;150.798;2023-05-07T09:43:35;0.40;;;0.30;;
63398;SDS011;49533;-34.520;150.798;2023-05-07T09:48:35;0.40;;;0.40;;
63398;SDS011;49533;-34.520;150.798;2023-05-07T09:51:09;0.38;;;0.30;;
63398;SDS011;49533;-34.520;150.798;2023-05-07T09:53:44;0.30;;;0.30;;
63398;SDS011;49533;-34.520;150.798;2023-05-07T09:56:13;0.50;;;0.38;;
63398;SDS011;49533;-34.520;150.798;2023-05-07T09:58:42;1.17;;;0.28;;
63398;SDS011;49533;-34.520;150.798;2023-05-07T10:01:12;0.25;;;0.25;;
63398;SDS011;49533;-34.520;150.798;2023-05-07T10:03:40;0.75;;;0.30;;
63398;SDS011;49533;-34.520;150.798;2023-05-07T10:06:09;0.60;;;0.32;;
63398;SDS011;49533;-34.520;150.798;2023-05-07T10:08:38;0.28;;;0.28;;
63398;SDS011;49533;-34.520;150.798;2023-05-07T10:11:06;0.32;;;0.32;;
63398;SDS011;49533;-34.520;150.798;2023-05-07T10:13:33;0.50;;;0.40;;
63398;SDS011;49533;-34.520;150.798;2023-05-07T10:16:03;0.80;;;0.50;;
63398;SDS011;49533;-34.520;150.798;2023-05-07T10:18:31;0.50;;;0.38;;
63398;SDS011;49533;-34.520;150.798;2023-05-07T10:21:01;1.02;;;0.50;;
63398;SDS011;49533;-34.520;150.798;2023-05-07T10:23:34;0.30;;;0.28;;
63398;SDS011;49533;-34.520;150.798;2023-05-07T10:26:02;0.65;;;0.45;;
63398;SDS011;49533;-34.520;150.798;2023-05-07T10:28:32;0.40;;;0.30;;
63398;SDS011;49533;-34.520;150.798;2023-05-07T10:31:08;0.90;;;0.30;;
63398;SDS011;49533;-34.520;150.798;2023-05-07T10:33:51;0.55;;;0.55;;
63398;SDS011;49533;-34.520;150.798;2023-05-07T10:36:21;1.15;;;0.30;;
63398;SDS011;49533;-34.520;150.798;2023-05-07T10:38:49;0.38;;;0.38;;
63398;SDS011;49533;-34.520;150.798;2023-05-07T10:41:17;0.30;;;0.30;;
63398;SDS011;49533;-34.520;150.798;2023-05-07T10:43:45;0.68;;;0.30;;
63398;SDS011;49533;-34.520;150.798;2023-05-07T10:46:14;0.63;;;0.40;;
63398;SDS011;49533;-34.520;150.798;2023-05-07T10:49:16;2.65;;;1.00;;
63398;SDS011;49533;-34.520;150.798;2023-05-07T10:51:33;0.20;;;0.20;;
63398;SDS011;49533;-34.520;150.798;2023-05-07T10:56:48;0.60;;;0.40;;
63398;SDS011;49533;-34.520;150.798;2023-05-07T11:02:08;0.82;;;0.30;;
63398;SDS011;49533;-34.520;150.798;2023-05-07T11:04:36;1.52;;;0.13;;
63398;SDS011;49533;-34.520;150.798;2023-05-07T11:09:55;0.20;;;0.20;;
63398;SDS011;49533;-34.520;150.798;2023-05-07T11:15:14;0.20;;;0.20;;
63398;SDS011;49533;-34.520;150.798;2023-05-07T11:18:00;0.50;;;0.10;;
63398;SDS011;49533;-34.520;150.798;2023-05-07T11:26:12;0.28;;;0.00;;
63398;SDS011;49533;-34.520;150.798;2023-05-07T11:28:41;0.10;;;0.10;;
63398;SDS011;49533;-34.520;150.798;2023-05-07T11:31:09;0.05;;;0.05;;
63398;SDS011;49533;-34.520;150.798;2023-05-07T11:33:38;0.47;;;0.15;;
63398;SDS011;49533;-34.520;150.798;2023-05-07T11:36:07;0.30;;;0.30;;
63398;SDS011;49533;-34.520;150.798;2023-05-07T11:38:35;0.70;;;0.52;;
63398;SDS011;49533;-34.520;150.798;2023-05-07T11:41:04;0.47;;;0.20;;
63398;SDS011;49533;-34.520;150.798;2023-05-07T11:43:31;0.13;;;0.10;;
63398;SDS011;49533;-34.520;150.798;2023-05-07T11:46:06;0.25;;;0.20;;
63398;SDS011;49533;-34.520;150.798;2023-05-07T11:48:35;0.17;;;0.08;;
63398;SDS011;49533;-34.520;150.798;2023-05-07T11:51:04;0.20;;;0.10;;
63398;SDS011;49533;-34.520;150.798;2023-05-07T11:53:38;1.55;;;0.20;;
63398;SDS011;49533;-34.520;150.798;2023-05-07T11:56:08;0.10;;;0.10;;
63398;SDS011;49533;-34.520;150.798;2023-05-07T11:58:36;0.43;;;0.20;;
63398;SDS011;49533;-34.520;150.798;2023-05-07T12:01:07;0.20;;;0.10;;
63398;SDS011;49533;-34.520;150.798;2023-05-07T12:03:35;0.10;;;0.10;;
63398;SDS011;49533;-34.520;150.798;2023-05-07T12:06:06;0.20;;;0.20;;
63398;SDS011;49533;-34.520;150.798;2023-05-07T12:08:36;0.10;;;0.10;;
63398;SDS011;49533;-34.520;150.798;2023-05-07T12:11:06;0.28;;;0.28;;
63398;SDS011;49533;-34.520;150.798;2023-05-07T12:13:35;1.02;;;0.20;;
63398;SDS011;49533;-34.520;150.798;2023-05-07T12:16:03;0.15;;;0.10;;
63398;SDS011;49533;-34.520;150.798;2023-05-07T12:18:32;0.43;;;0.20;;
63398;SDS011;49533;-34.520;150.798;2023-05-07T12:21:01;0.60;;;0.30;;
63398;SDS011;49533;-34.520;150.798;2023-05-07T12:23:30;0.17;;;0.10;;
63398;SDS011;49533;-34.520;150.798;2023-05-07T12:25:57;0.95;;;0.20;;
63398;SDS011;49533;-34.520;150.798;2023-05-07T12:28:26;0.28;;;0.20;;
63398;SDS011;49533;-34.520;150.798;2023-05-07T12:30:53;0.10;;;0.10;;
63398;SDS011;49533;-34.520;150.798;2023-05-07T12:33:25;0.75;;;0.32;;
63398;SDS011;49533;-34.520;150.798;2023-05-07T12:35:55;0.68;;;0.22;;
63398;SDS011;49533;-34.520;150.798;2023-05-07T12:38:23;1.75;;;0.25;;
63398;SDS011;49533;-34.520;150.798;2023-05-07T12:40:53;0.50;;;0.20;;
63398;SDS011;49533;-34.520;150.798;2023-05-07T12:43:21;0.65;;;0.20;;
63398;SDS011;49533;-34.520;150.798;2023-05-07T12:45:53;0.32;;;0.10;;
63398;SDS011;49533;-34.520;150.798;2023-05-07T12:48:21;0.88;;;0.60;;
63398;SDS011;49533;-34.520;150.798;2023-05-07T12:50:53;0.55;;;0.30;;
63398;SDS011;49533;-34.520;150.798;2023-05-07T12:53:22;1.13;;;0.28;;
63398;SDS011;49533;-34.520;150.798;2023-05-07T12:55:53;0.55;;;0.30;;
63398;SDS011;49533;-34.520;150.798;2023-05-07T12:58:24;0.20;;;0.20;;
63398;SDS011;49533;-34.520;150.798;2023-05-07T13:00:56;2.80;;;0.65;;
63398;SDS011;49533;-34.520;150.798;2023-05-07T13:03:29;0.43;;;0.25;;
63398;SDS011;49533;-34.520;150.798;2023-05-07T13:05:59;0.28;;;0.20;;
63398;SDS011;49533;-34.520;150.798;2023-05-07T13:08:31;1.33;;;0.30;;
63398;SDS011;49533;-34.520;150.798;2023-05-07T13:11:02;0.88;;;0.30;;
63398;SDS011;49533;-34.520;150.798;2023-05-07T13:13:30;1.50;;;0.30;;
63398;SDS011;49533;-34.520;150.798;2023-05-07T13:15:59;0.22;;;0.20;;
63398;SDS011;49533;-34.520;150.798;2023-05-07T13:18:26;0.60;;;0.30;;
63398;SDS011;49533;-34.520;150.798;2023-05-07T13:20:55;0.35;;;0.35;;
63398;SDS011;49533;-34.520;150.798;2023-05-07T13:23:23;0.40;;;0.25;;
63398;SDS011;49533;-34.520;150.798;2023-05-07T13:25:50;0.88;;;0.30;;
63398;SDS011;49533;-34.520;150.798;2023-05-07T13:28:20;2.28;;;0.30;;
63398;SDS011;49533;-34.520;150.798;2023-05-07T13:30:47;0.10;;;0.10;;
63398;SDS011;49533;-34.520;150.798;2023-05-07T13:33:15;1.42;;;0.50;;
63398;SDS011;49533;-34.520;150.798;2023-05-07T13:35:42;0.20;;;0.20;;
63398;SDS011;49533;-34.520;150.798;2023-05-07T13:38:10;1.50;;;0.50;;
63398;SDS011;49533;-34.520;150.798;2023-05-07T13:40:37;0.88;;;0.20;;
63398;SDS011;49533;-34.520;150.798;2023-05-07T13:43:05;1.08;;;0.30;;
63398;SDS011;49533;-34.520;150.798;2023-05-07T13:45:33;1.25;;;0.40;;
63398;SDS011;49533;-34.520;150.798;2023-05-07T13:48:00;1.50;;;0.30;;
63398;SDS011;49533;-34.520;150.798;2023-05-07T13:50:27;0.60;;;0.30;;
63398;SDS011;49533;-34.520;150.798;2023-05-07T13:52:55;3.97;;;0.40;;
63398;SDS011;49533;-34.520;150.798;2023-05-07T13:55:23;0.43;;;0.13;;
63398;SDS011;49533;-34.520;150.798;2023-05-07T13:57:55;0.35;;;0.25;;
63398;SDS011;49533;-34.520;150.798;2023-05-07T14:00:23;0.25;;;0.20;;
63398;SDS011;49533;-34.520;150.798;2023-05-07T14:02:52;2.42;;;0.30;;
63398;SDS011;49533;-34.520;150.798;2023-05-07T14:05:19;0.73;;;0.30;;
63398;SDS011;49533;-34.520;150.798;2023-05-07T14:07:50;0.38;;;0.25;;
63398;SDS011;49533;-34.520;150.798;2023-05-07T14:10:18;1.20;;;0.50;;
63398;SDS011;49533;-34.520;150.798;2023-05-07T14:12:46;0.90;;;0.40;;
63398;SDS011;49533;-34.520;150.798;2023-05-07T14:15:13;1.23;;;0.25;;
63398;SDS011;49533;-34.520;150.798;2023-05-07T14:17:42;1.38;;;0.52;;
63398;SDS011;49533;-34.520;150.798;2023-05-07T14:20:09;1.05;;;0.50;;
63398;SDS011;49533;-34.520;150.798;2023-05-07T14:22:39;0.68;;;0.50;;
63398;SDS011;49533;-34.520;150.798;2023-05-07T14:25:06;0.47;;;0.35;;
63398;SDS011;49533;-34.520;150.798;2023-05-07T14:27:35;2.67;;;0.40;;
63398;SDS011;49533;-34.520;150.798;2023-05-07T14:30:02;0.93;;;0.40;;
63398;SDS011;49533;-34.520;150.798;2023-05-07T14:32:30;0.95;;;0.30;;